createdAt,value
2018-06-12T00:00:37.350Z,1.97
2018-06-12T00:03:41.709Z,1.97
2018-06-12T00:06:46.085Z,1.60
2018-06-12T00:09:50.453Z,1.70
2018-06-12T00:12:54.827Z,1.60
2018-06-12T00:15:59.208Z,1.47
2018-06-12T00:19:03.580Z,1.83
2018-06-12T00:22:07.955Z,1.80
2018-06-12T00:25:12.374Z,1.50
2018-06-12T00:28:16.712Z,2.07
2018-06-12T00:31:21.097Z,1.40
2018-06-12T00:34:25.487Z,1.90
2018-06-12T00:37:29.861Z,1.70
2018-06-12T00:40:34.201Z,1.73
2018-06-12T00:43:39.478Z,1.77
2018-06-12T00:46:43.869Z,1.83
2018-06-12T00:49:48.394Z,1.53
2018-06-12T00:52:52.788Z,1.77
2018-06-12T00:55:57.166Z,1.80
2018-06-12T00:59:01.543Z,1.50
2018-06-12T01:02:06.316Z,1.53
2018-06-12T01:05:10.705Z,1.93
2018-06-12T01:08:15.069Z,1.70
2018-06-12T01:11:19.440Z,1.70
2018-06-12T01:14:23.811Z,1.73
2018-06-12T01:17:28.221Z,1.57
2018-06-12T01:20:32.574Z,1.80
2018-06-12T01:23:36.952Z,1.93
2018-06-12T01:26:41.328Z,2.07
2018-06-12T01:29:45.696Z,1.63
2018-06-12T01:32:50.061Z,1.63
2018-06-12T01:35:54.448Z,1.57
2018-06-12T01:38:58.833Z,2.20
2018-06-12T01:42:03.192Z,1.97
2018-06-12T01:45:07.564Z,1.63
2018-06-12T01:48:11.921Z,1.70
2018-06-12T01:51:16.308Z,2.30
2018-06-12T01:54:20.712Z,1.67
2018-06-12T01:57:25.076Z,2.20
2018-06-12T02:00:29.493Z,2.40
2018-06-12T02:03:33.841Z,1.87
2018-06-12T02:06:38.209Z,1.90
2018-06-12T02:09:42.637Z,1.87
2018-06-12T02:12:46.997Z,2.10
2018-06-12T02:15:51.394Z,1.80
2018-06-12T02:18:55.740Z,1.80
2018-06-12T02:22:00.125Z,1.90
2018-06-12T02:25:04.534Z,1.87
2018-06-12T02:28:08.883Z,1.77
2018-06-12T02:31:13.257Z,2.20
2018-06-12T02:34:17.618Z,1.90
2018-06-12T02:37:22.012Z,1.87
2018-06-12T02:40:26.397Z,2.27
2018-06-12T02:43:30.766Z,2.40
2018-06-12T02:46:35.145Z,1.73
2018-06-12T02:49:39.265Z,2.27
2018-06-12T02:52:43.647Z,1.90
2018-06-12T02:55:48.017Z,1.97
2018-06-12T02:58:52.428Z,2.13
2018-06-12T03:02:00.631Z,2.43
2018-06-12T03:05:05.098Z,2.13
2018-06-12T03:08:09.475Z,1.83
2018-06-12T03:11:13.914Z,1.77
2018-06-12T03:14:18.278Z,2.07
2018-06-12T03:17:22.653Z,1.80
2018-06-12T03:20:46.182Z,1.90
2018-06-12T03:23:50.540Z,2.03
2018-06-12T03:26:54.945Z,2.17
2018-06-12T03:29:59.321Z,2.10
2018-06-12T03:33:03.721Z,1.90
2018-06-12T03:36:08.085Z,1.70
2018-06-12T03:39:12.447Z,2.10
2018-06-12T03:42:16.852Z,2.00
2018-06-12T03:45:21.241Z,1.90
2018-06-12T03:48:25.656Z,1.90
2018-06-12T03:51:30.030Z,2.07
2018-06-12T03:54:34.406Z,1.60
2018-06-12T03:57:38.780Z,1.87
2018-06-12T04:00:43.177Z,2.00
2018-06-12T04:03:47.541Z,1.83
2018-06-12T04:06:51.913Z,1.77
2018-06-12T04:09:56.253Z,1.50
2018-06-12T04:13:00.649Z,2.17
2018-06-12T04:16:05.004Z,1.77
2018-06-12T04:19:09.369Z,2.03
2018-06-12T04:22:13.737Z,1.47
2018-06-12T04:25:18.117Z,1.93
2018-06-12T04:28:22.464Z,2.33
2018-06-12T04:31:26.832Z,1.67
2018-06-12T04:34:31.190Z,1.50
2018-06-12T04:37:35.581Z,1.50
2018-06-12T04:40:39.944Z,2.07
2018-06-12T04:43:44.316Z,1.83
2018-06-12T04:46:48.691Z,1.57
2018-06-12T04:49:53.066Z,2.13
2018-06-12T04:52:57.429Z,1.60
2018-06-12T04:56:01.816Z,1.60
2018-06-12T04:59:06.165Z,1.40
2018-06-12T05:02:10.518Z,1.40
2018-06-12T05:05:14.897Z,1.93
2018-06-12T05:08:19.272Z,2.03
2018-06-12T05:11:23.376Z,1.50
2018-06-12T05:14:27.786Z,1.53
2018-06-12T05:17:32.160Z,1.23
2018-06-12T05:20:36.517Z,1.60
2018-06-12T05:23:40.901Z,1.10
2018-06-12T05:26:45.820Z,2.00
2018-06-12T05:29:50.204Z,1.40
2018-06-12T05:32:54.565Z,1.30
2018-06-12T05:35:58.928Z,1.30
2018-06-12T05:39:03.373Z,1.20
2018-06-12T05:42:07.737Z,1.37
2018-06-12T05:45:12.093Z,1.17
2018-06-12T05:48:16.457Z,1.13
2018-06-12T05:51:20.840Z,1.17
2018-06-12T05:54:25.192Z,1.40
2018-06-12T05:57:29.577Z,1.27
2018-06-12T06:00:33.942Z,1.57
2018-06-12T06:03:38.317Z,1.63
2018-06-12T06:06:42.678Z,1.37
2018-06-12T06:09:47.057Z,1.40
2018-06-12T06:12:51.450Z,1.37
2018-06-12T06:15:55.828Z,1.60
2018-06-12T06:19:00.173Z,1.50
2018-06-12T06:22:04.552Z,1.40
2018-06-12T06:25:08.937Z,1.10
2018-06-12T06:28:13.290Z,1.33
2018-06-12T06:31:17.689Z,1.30
2018-06-12T06:34:22.081Z,1.40
2018-06-12T06:37:26.444Z,1.30
2018-06-12T06:40:30.829Z,1.07
2018-06-12T06:43:35.268Z,1.87
2018-06-12T06:46:39.621Z,1.20
2018-06-12T06:49:44.006Z,1.37
2018-06-12T06:52:48.430Z,1.23
2018-06-12T06:55:52.844Z,1.10
2018-06-12T06:58:57.231Z,1.20
2018-06-12T07:02:01.613Z,1.37
2018-06-12T07:05:06.009Z,1.33
2018-06-12T07:08:10.383Z,1.63
2018-06-12T07:11:14.833Z,1.00
2018-06-12T07:14:19.204Z,0.90
2018-06-12T07:17:23.568Z,1.40
2018-06-12T07:21:31.314Z,1.10
2018-06-12T07:24:35.682Z,0.93
2018-06-12T07:27:40.028Z,1.47
2018-06-12T07:30:44.421Z,0.90
2018-06-12T07:33:48.788Z,1.10
2018-06-12T07:36:53.156Z,1.13
2018-06-12T07:39:57.521Z,0.90
2018-06-12T07:43:01.936Z,0.77
2018-06-12T07:46:06.417Z,1.17
2018-06-12T07:49:10.785Z,0.80
2018-06-12T07:52:15.158Z,0.60
2018-06-12T07:55:19.549Z,0.70
2018-06-12T07:58:23.925Z,0.83
2018-06-12T08:01:28.292Z,1.07
2018-06-12T08:04:32.669Z,0.53
2018-06-12T08:07:37.050Z,0.63
2018-06-12T08:10:41.409Z,1.00
2018-06-12T08:13:45.821Z,1.10
2018-06-12T08:16:50.192Z,0.93
2018-06-12T08:19:54.308Z,0.77
2018-06-12T08:22:58.682Z,0.90
2018-06-12T08:26:03.058Z,1.20
2018-06-12T08:29:07.535Z,1.03
2018-06-12T08:32:11.934Z,1.20
2018-06-12T08:35:16.289Z,1.10
2018-06-12T08:38:20.671Z,1.60
2018-06-12T08:41:25.042Z,1.60
2018-06-12T08:44:29.443Z,1.47
2018-06-12T08:47:33.811Z,1.57
2018-06-12T08:50:38.208Z,1.13
2018-06-12T08:53:42.605Z,1.40
2018-06-12T08:56:46.957Z,1.73
2018-06-12T08:59:51.429Z,1.17
2018-06-12T09:02:55.820Z,1.40
2018-06-12T09:06:00.239Z,1.10
2018-06-12T09:09:06.152Z,1.30
2018-06-12T09:12:10.546Z,1.70
2018-06-12T09:15:14.965Z,1.67
2018-06-12T09:18:19.373Z,1.37
2018-06-12T09:21:23.786Z,1.77
2018-06-12T09:24:28.176Z,1.67
2018-06-12T09:27:37.750Z,1.40
2018-06-12T09:30:42.142Z,1.80
2018-06-12T09:33:46.513Z,2.00
2018-06-12T09:36:51.013Z,1.30
2018-06-12T09:39:55.472Z,1.40
2018-06-12T09:42:59.862Z,1.60
2018-06-12T09:46:04.245Z,1.20
2018-06-12T09:49:08.683Z,1.50
2018-06-12T09:52:13.025Z,1.40
2018-06-12T09:55:17.445Z,1.00
2018-06-12T09:58:21.827Z,1.40
2018-06-12T10:01:26.265Z,1.00
2018-06-12T10:04:30.665Z,1.03
2018-06-12T10:07:35.064Z,1.53
2018-06-12T10:10:39.445Z,1.40
2018-06-12T10:13:43.861Z,1.50
2018-06-12T10:16:48.288Z,1.20
2018-06-12T10:19:52.725Z,1.20
2018-06-12T10:22:57.146Z,1.20
2018-06-12T10:26:01.540Z,1.40
2018-06-12T10:29:06.228Z,1.10
2018-06-12T10:32:10.617Z,1.17
2018-06-12T10:35:15.021Z,1.00
2018-06-12T10:38:19.412Z,1.23
2018-06-12T10:41:23.774Z,1.20
2018-06-12T10:44:28.177Z,1.30
2018-06-12T10:47:32.533Z,1.03
2018-06-12T10:50:36.916Z,1.47
2018-06-12T10:53:41.348Z,1.30
2018-06-12T10:56:45.786Z,1.37
2018-06-12T10:59:49.897Z,1.20
2018-06-12T11:02:54.261Z,1.50
2018-06-12T11:05:58.660Z,1.30
2018-06-12T11:09:03.121Z,1.43
2018-06-12T11:12:07.517Z,1.60
2018-06-12T11:15:11.909Z,1.30
2018-06-12T11:18:16.349Z,1.63
2018-06-12T11:21:20.733Z,1.90
2018-06-12T11:24:25.138Z,1.47
2018-06-12T11:27:29.614Z,1.10
2018-06-12T11:30:34.014Z,1.60
2018-06-12T11:33:38.445Z,1.70
2018-06-12T11:36:42.856Z,1.43
2018-06-12T11:39:47.235Z,1.13
2018-06-12T11:42:51.651Z,1.30
2018-06-12T11:45:56.057Z,1.57
2018-06-12T11:49:00.464Z,1.30
2018-06-12T11:52:04.908Z,1.40
2018-06-12T11:55:09.320Z,1.90
2018-06-12T11:58:13.729Z,1.53
2018-06-12T12:01:18.122Z,1.20
2018-06-12T12:04:22.522Z,1.57
2018-06-12T12:07:26.924Z,1.60
2018-06-12T12:10:31.332Z,1.67
2018-06-12T12:13:35.731Z,1.40
2018-06-12T12:16:40.129Z,1.30
2018-06-12T12:19:44.528Z,1.77
2018-06-12T12:22:48.945Z,1.50
2018-06-12T12:25:53.341Z,1.60
2018-06-12T12:28:57.753Z,1.40
2018-06-12T12:32:02.254Z,1.57
2018-06-12T12:35:06.686Z,1.63
2018-06-12T12:38:11.081Z,1.90
2018-06-12T12:41:15.490Z,2.17
2018-06-12T12:44:19.884Z,1.30
2018-06-12T12:47:24.272Z,2.10
2018-06-12T12:50:28.641Z,1.60
2018-06-12T12:53:33.029Z,1.53
2018-06-12T12:56:37.422Z,1.60
2018-06-12T12:59:41.809Z,1.60
2018-06-12T13:02:46.205Z,1.73
2018-06-12T13:05:50.598Z,1.73
2018-06-12T13:08:55.037Z,1.93
2018-06-12T13:11:59.438Z,1.60
2018-06-12T13:15:03.837Z,2.40
2018-06-12T13:18:08.242Z,1.77
2018-06-12T13:21:12.638Z,1.60
2018-06-12T13:24:17.037Z,2.00
2018-06-12T13:27:21.435Z,1.80
2018-06-12T13:30:25.862Z,1.70
2018-06-12T13:33:30.333Z,2.07
2018-06-12T13:36:34.688Z,2.00
2018-06-12T13:39:39.068Z,1.97
2018-06-12T13:42:43.488Z,1.93
2018-06-12T13:45:47.889Z,1.83
2018-06-12T13:48:52.284Z,1.83
2018-06-12T13:51:56.685Z,1.57
2018-06-12T13:55:01.106Z,1.40
2018-06-12T13:58:05.513Z,1.77
2018-06-12T14:01:09.965Z,1.83
2018-06-12T14:04:14.350Z,1.83
2018-06-12T14:07:18.748Z,9.63
2018-06-12T14:10:23.133Z,7.37
2018-06-12T14:13:27.561Z,1.87
2018-06-12T14:16:31.912Z,1.40
2018-06-12T14:19:36.309Z,1.50
2018-06-12T14:22:40.665Z,1.70
2018-06-12T14:25:45.058Z,1.40
2018-06-12T14:28:49.425Z,1.40
2018-06-12T14:31:53.817Z,1.90
2018-06-12T14:34:58.176Z,1.70
2018-06-12T14:38:02.537Z,1.60
2018-06-12T14:41:06.987Z,2.30
2018-06-12T14:44:11.353Z,2.37
2018-06-12T14:47:15.747Z,2.37
2018-06-12T14:50:20.099Z,2.30
2018-06-12T14:53:24.548Z,2.37
2018-06-12T14:56:28.918Z,2.50
2018-06-12T14:59:33.306Z,2.60
2018-06-12T15:02:37.711Z,2.63
2018-06-12T15:05:42.101Z,2.27
2018-06-12T15:08:46.480Z,2.40
2018-06-12T15:11:50.837Z,2.40
2018-06-12T15:14:55.225Z,2.60
2018-06-12T15:17:59.581Z,2.70
2018-06-12T15:21:03.957Z,2.67
2018-06-12T15:24:08.307Z,2.77
2018-06-12T15:27:12.729Z,2.73
2018-06-12T15:30:17.089Z,3.20
2018-06-12T15:33:21.504Z,2.47
2018-06-12T15:36:25.860Z,1.90
2018-06-12T15:39:30.241Z,1.87
2018-06-12T15:42:34.609Z,1.47
2018-06-12T15:45:39.010Z,2.37
2018-06-12T15:48:43.351Z,2.23
2018-06-12T15:51:47.765Z,2.90
2018-06-12T15:54:52.154Z,3.00
2018-06-12T15:57:56.548Z,2.97
2018-06-12T16:01:00.938Z,2.73
2018-06-12T16:04:05.344Z,2.60
2018-06-12T16:07:09.701Z,3.63
2018-06-12T16:10:14.108Z,5.07
2018-06-12T16:13:18.499Z,4.70
2018-06-12T16:16:22.888Z,2.90
2018-06-12T16:19:27.294Z,4.00
2018-06-12T16:22:31.725Z,3.53
2018-06-12T16:25:36.090Z,3.10
2018-06-12T16:28:40.461Z,2.77
2018-06-12T16:31:44.838Z,2.23
2018-06-12T16:34:49.237Z,2.97
2018-06-12T16:37:53.663Z,3.83
2018-06-12T16:40:58.043Z,4.07
2018-06-12T16:44:02.440Z,3.87
2018-06-12T16:47:06.822Z,3.03
2018-06-12T16:50:11.230Z,2.90
2018-06-12T16:53:15.597Z,3.40
2018-06-12T16:56:20.055Z,2.80
2018-06-12T16:59:24.402Z,3.57
2018-06-12T17:02:28.845Z,3.20
2018-06-12T17:05:33.233Z,2.93
2018-06-12T17:08:38.328Z,3.63
2018-06-12T17:11:42.825Z,3.33
2018-06-12T17:14:47.224Z,3.70
2018-06-12T17:17:51.585Z,3.10
2018-06-12T17:20:55.937Z,2.93
2018-06-12T17:24:00.324Z,3.37
2018-06-12T17:27:04.732Z,3.57
2018-06-12T17:30:09.137Z,3.07
2018-06-12T17:33:13.546Z,2.90
2018-06-12T17:36:17.934Z,2.60
2018-06-12T17:39:22.373Z,3.27
2018-06-12T17:42:26.767Z,2.90
2018-06-12T17:45:31.178Z,2.60
2018-06-12T17:48:35.699Z,3.30
2018-06-12T17:51:40.876Z,2.70
2018-06-12T17:54:45.353Z,3.10
2018-06-12T17:57:49.736Z,2.97
2018-06-12T18:00:54.187Z,3.23
2018-06-12T18:03:58.585Z,3.03
2018-06-12T18:07:02.965Z,3.13
2018-06-12T18:10:07.410Z,2.80
2018-06-12T18:13:11.840Z,3.07
2018-06-12T18:16:16.206Z,3.70
2018-06-12T18:19:20.632Z,3.10
2018-06-12T18:22:25.049Z,11.03
2018-06-12T18:25:29.490Z,2.90
2018-06-12T18:28:33.869Z,3.53
2018-06-12T18:31:38.277Z,2.83
2018-06-12T18:34:42.622Z,3.20
2018-06-12T18:37:47.000Z,3.23
2018-06-12T18:40:51.353Z,3.33
2018-06-12T18:43:55.769Z,3.17
2018-06-12T18:47:00.105Z,3.37
2018-06-12T18:50:04.513Z,3.23
2018-06-12T18:53:08.868Z,3.30
2018-06-12T18:56:13.265Z,3.43
2018-06-12T18:59:17.637Z,3.60
2018-06-12T19:02:22.013Z,3.73
2018-06-12T19:05:26.370Z,3.60
2018-06-12T19:08:30.785Z,3.93
2018-06-12T19:11:35.179Z,4.43
2018-06-12T19:14:39.584Z,3.67
2018-06-12T19:17:43.957Z,3.47
2018-06-12T19:20:48.333Z,3.43
2018-06-12T19:23:52.710Z,3.30
2018-06-12T19:26:57.081Z,3.83
2018-06-12T19:30:01.486Z,3.90
2018-06-12T19:33:05.896Z,3.17
2018-06-12T19:36:10.274Z,4.00
2018-06-12T19:39:14.657Z,3.57
2018-06-12T19:42:19.021Z,3.73
2018-06-12T19:45:23.450Z,4.13
2018-06-12T19:48:27.814Z,3.50
2018-06-12T19:51:32.223Z,3.63
2018-06-12T19:54:36.629Z,3.47
2018-06-12T19:57:41.017Z,3.57
2018-06-12T20:00:45.431Z,3.50
2018-06-12T20:03:49.795Z,3.37
2018-06-12T20:06:54.193Z,3.20
2018-06-12T20:09:58.549Z,3.77
2018-06-12T20:13:02.979Z,3.43
2018-06-12T20:16:07.346Z,3.60
2018-06-12T20:19:11.701Z,3.87
2018-06-12T20:22:16.085Z,4.17
2018-06-12T20:25:20.444Z,4.27
2018-06-12T20:28:24.816Z,4.03
2018-06-12T20:31:29.214Z,4.77
2018-06-12T20:34:33.616Z,3.77
2018-06-12T20:37:37.996Z,4.67
2018-06-12T20:40:42.396Z,4.37
2018-06-12T20:43:46.756Z,3.93
2018-06-12T20:46:51.240Z,4.23
2018-06-12T20:49:55.553Z,4.60
2018-06-12T20:52:59.941Z,5.17
2018-06-12T20:56:04.337Z,4.67
2018-06-12T20:59:08.692Z,4.10
2018-06-12T21:02:13.050Z,4.30
2018-06-12T21:05:17.432Z,3.97
2018-06-12T21:08:21.808Z,4.30
2018-06-12T21:11:26.186Z,4.07
2018-06-12T21:14:30.543Z,4.47
2018-06-12T21:17:34.939Z,4.30
2018-06-12T21:20:39.272Z,5.20
2018-06-12T21:23:43.661Z,4.60
2018-06-12T21:26:48.121Z,5.50
2018-06-12T21:29:52.463Z,4.90
2018-06-12T21:32:56.825Z,4.90
2018-06-12T21:36:01.178Z,4.53
2018-06-12T21:39:08.141Z,5.33
2018-06-12T21:42:12.505Z,4.50
2018-06-12T21:45:16.864Z,4.63
2018-06-12T21:48:21.218Z,4.93
2018-06-12T21:51:25.586Z,4.47
2018-06-12T21:54:29.949Z,4.90
2018-06-12T21:57:34.325Z,4.47
2018-06-12T22:00:38.688Z,4.20
2018-06-12T22:03:43.110Z,4.10
2018-06-12T22:06:47.493Z,4.60
2018-06-12T22:09:51.915Z,4.00
2018-06-12T22:12:56.301Z,4.40
2018-06-12T22:16:00.677Z,4.77
2018-06-12T22:19:05.077Z,4.27
2018-06-12T22:22:09.446Z,4.20
2018-06-12T22:25:13.886Z,3.90
2018-06-12T22:28:18.241Z,3.67
2018-06-12T22:31:22.621Z,4.97
2018-06-12T22:34:26.999Z,4.67
2018-06-12T22:37:31.400Z,4.00
2018-06-12T22:40:35.780Z,4.10
2018-06-12T22:43:40.137Z,3.57
2018-06-12T22:46:44.509Z,4.60
2018-06-12T22:49:48.918Z,4.57
2018-06-12T22:52:53.309Z,3.90
2018-06-12T22:55:57.712Z,3.90
2018-06-12T22:59:02.088Z,4.37
2018-06-12T23:02:06.748Z,4.70
2018-06-12T23:05:11.137Z,4.20
2018-06-12T23:08:15.532Z,5.30
2018-06-12T23:11:19.916Z,4.30
2018-06-12T23:14:24.298Z,4.43
2018-06-12T23:17:28.698Z,4.03
2018-06-12T23:20:50.303Z,4.40
2018-06-12T23:23:54.697Z,3.30
2018-06-12T23:26:58.804Z,4.03
2018-06-12T23:30:03.178Z,3.47
2018-06-12T23:33:07.557Z,3.40
2018-06-12T23:36:11.896Z,3.00
2018-06-12T23:39:16.304Z,3.33
2018-06-12T23:42:20.656Z,3.40
2018-06-12T23:45:25.034Z,2.73
2018-06-12T23:59:24.142Z,2.40
